Time;durP1;ratioP1;P1;durP2;ratioP2;P2;SDS_P1;SDS_P2;PMS_P1;PMS_P2;Temp;Humidity;BMP_temperature;BMP_pressure;BME280_temperature;BME280_humidity;BME280_pressure;Samples;Min_cycle;Max_cycle;Signal;HPM_P1;HPM_P2
2023/07/12 04:32:30;;;;;;;9.15;3.25;;;16.80;77.30;;;;;;4969019;23;20149;-75
2023/07/12 04:34:56;;;;;;;10.20;3.58;;;16.80;77.30;;;;;;4979370;28;20059;-76
2023/07/12 04:37:22;;;;;;;10.20;3.10;;;16.80;77.40;;;;;;4969532;28;20165;-76
2023/07/12 04:39:48;;;;;;;9.27;3.25;;;16.70;77.80;;;;;;4960275;29;20031;-76
2023/07/12 04:42:14;;;;;;;11.63;3.25;;;16.70;77.30;;;;;;4960167;29;20517;-76
2023/07/12 04:44:40;;;;;;;8.75;3.40;;;16.70;77.40;;;;;;4960167;28;20390;-89
2023/07/12 04:47:09;;;;;;;7.82;3.30;;;16.70;77.10;;;;;;4943341;29;20038;-84
2023/07/12 04:49:34;;;;;;;7.00;2.95;;;16.70;77.50;;;;;;4953296;29;20035;-91
2023/07/12 04:52:00;;;;;;;9.05;3.85;;;16.70;77.50;;;;;;4943112;29;20027;-89
2023/07/12 04:54:26;;;;;;;11.32;3.53;;;16.80;77.20;;;;;;4960430;29;20028;-90
2023/07/12 04:56:52;;;;;;;11.20;3.42;;;16.80;77.40;;;;;;4962413;28;20035;-87
2023/07/12 04:59:19;;;;;;;8.18;3.33;;;16.80;77.00;;;;;;4944931;28;20053;-88
2023/07/12 05:01:45;;;;;;;8.52;3.20;;;16.70;77.40;;;;;;4965119;28;20056;-89
2023/07/12 05:04:11;;;;;;;11.25;3.63;;;16.70;77.40;;;;;;4951315;28;20033;-89
2023/07/12 05:06:37;;;;;;;7.97;3.08;;;16.80;77.50;;;;;;4956466;29;20114;-90
2023/07/12 05:09:03;;;;;;;9.70;3.38;;;16.70;77.50;;;;;;4960455;28;20517;-89
2023/07/12 05:11:29;;;;;;;13.32;3.33;;;16.80;77.30;;;;;;4962150;28;20043;-90
2023/07/12 05:13:55;;;;;;;10.80;3.70;;;16.80;77.20;;;;;;4979590;28;20844;-89
2023/07/12 05:16:20;;;;;;;7.28;3.13;;;16.80;77.20;;;;;;4962489;28;20031;-90
2023/07/12 05:18:46;;;;;;;9.25;3.47;;;16.80;77.50;;;;;;4958650;28;20035;-88
2023/07/12 05:21:12;;;;;;;12.70;4.45;;;16.70;78.00;;;;;;4962863;28;20027;-87
2023/07/12 05:23:39;;;;;;;9.60;3.65;;;16.70;77.90;;;;;;4958296;29;20070;-86
2023/07/12 05:26:05;;;;;;;14.98;3.90;;;16.70;77.90;;;;;;4960017;29;20058;-82
2023/07/12 05:28:31;;;;;;;8.50;3.40;;;16.70;78.00;;;;;;4960654;28;20023;-89
2023/07/12 05:30:57;;;;;;;9.18;3.38;;;16.70;77.80;;;;;;4962011;28;20046;-89
2023/07/12 05:33:23;;;;;;;8.45;3.25;;;16.70;78.30;;;;;;4970853;28;20451;-90
2023/07/12 05:35:48;;;;;;;10.00;3.20;;;16.70;78.10;;;;;;4962549;28;20062;-90
2023/07/12 05:38:15;;;;;;;9.65;3.35;;;16.80;78.30;;;;;;4961867;28;20040;-91
2023/07/12 05:40:40;;;;;;;8.80;3.55;;;16.80;78.40;;;;;;4962513;28;20086;-91
2023/07/12 05:43:06;;;;;;;8.88;3.08;;;16.80;78.20;;;;;;4961068;28;20019;-91
2023/07/12 05:45:32;;;;;;;12.85;3.60;;;16.80;78.30;;;;;;4962588;28;20026;-90
2023/07/12 05:47:57;;;;;;;9.63;3.70;;;16.80;78.40;;;;;;4961911;28;20057;-89
2023/07/12 05:50:23;;;;;;;13.60;3.67;;;16.80;78.00;;;;;;4960995;28;20086;-87
2023/07/12 05:52:49;;;;;;;8.98;3.53;;;16.80;78.60;;;;;;4956569;28;20034;-81
2023/07/12 05:55:19;;;;;;;8.05;3.42;;;16.80;78.60;;;;;;4949610;28;20114;-82
2023/07/12 05:57:46;;;;;;;11.18;3.80;;;16.90;78.00;;;;;;4960998;28;20043;-85
2023/07/12 06:00:13;;;;;;;7.43;3.58;;;16.90;78.00;;;;;;4974999;28;20524;-85
2023/07/12 06:02:38;;;;;;;10.23;3.78;;;16.90;78.20;;;;;;4971585;28;20030;-84
2023/07/12 06:05:05;;;;;;;12.60;4.50;;;16.90;78.50;;;;;;4960681;28;20035;-85
2023/07/12 06:07:31;;;;;;;13.60;3.80;;;16.90;78.50;;;;;;4976086;28;20031;-84
2023/07/12 06:09:57;;;;;;;11.90;3.80;;;16.90;78.40;;;;;;4957032;28;20030;-84
2023/07/12 06:12:23;;;;;;;9.18;3.70;;;17.00;78.50;;;;;;4960771;28;20027;-84
2023/07/12 06:14:49;;;;;;;11.18;3.75;;;17.00;78.50;;;;;;4957149;29;20071;-85
2023/07/12 06:17:14;;;;;;;7.13;3.65;;;17.00;78.40;;;;;;4958612;29;20043;-84
2023/07/12 06:19:40;;;;;;;7.55;3.53;;;17.10;78.60;;;;;;4941615;29;20078;-85
2023/07/12 06:22:06;;;;;;;10.13;4.22;;;17.10;78.60;;;;;;4941027;29;20101;-84
2023/07/12 06:24:31;;;;;;;12.60;4.07;;;17.00;78.90;;;;;;4958037;28;20031;-85
2023/07/12 06:26:57;;;;;;;10.45;4.43;;;17.10;78.80;;;;;;4958853;29;20019;-84
2023/07/12 06:29:24;;;;;;;9.63;3.42;;;17.20;78.70;;;;;;4941404;29;20023;-85
2023/07/12 06:31:50;;;;;;;8.45;3.53;;;17.20;78.50;;;;;;4944269;28;20085;-83
2023/07/12 06:34:16;;;;;;;10.85;3.85;;;17.30;78.20;;;;;;4977510;28;20027;-84
2023/07/12 06:36:42;;;;;;;7.88;3.03;;;17.30;78.20;;;;;;4961192;28;20035;-84
2023/07/12 06:39:08;;;;;;;8.95;3.67;;;17.40;78.10;;;;;;4957627;29;20166;-84
2023/07/12 06:41:34;;;;;;;9.50;3.42;;;17.40;77.80;;;;;;4957934;29;20035;-84
2023/07/12 06:44:00;;;;;;;7.65;3.17;;;17.50;77.30;;;;;;4958679;28;20027;-84
2023/07/12 06:46:25;;;;;;;9.23;3.40;;;17.50;77.50;;;;;;4958629;29;20035;-84
2023/07/12 06:48:51;;;;;;;17.13;3.90;;;17.60;77.30;;;;;;4958251;28;20079;-84
2023/07/12 06:51:17;;;;;;;9.93;3.80;;;17.60;77.50;;;;;;4957782;29;20090;-84
2023/07/12 06:53:42;;;;;;;7.47;3.90;;;17.50;77.50;;;;;;4964602;28;20031;-84
2023/07/12 06:56:08;;;;;;;10.15;4.32;;;17.50;77.60;;;;;;4959771;28;20478;-84
2023/07/12 06:58:34;;;;;;;10.52;4.05;;;17.50;77.50;;;;;;4959507;28;20050;-84
2023/07/12 07:01:00;;;;;;;9.57;4.05;;;17.50;77.30;;;;;;4942244;29;20090;-84
2023/07/12 07:03:26;;;;;;;11.32;3.85;;;17.70;77.20;;;;;;4976068;28;20041;-84
2023/07/12 07:05:51;;;;;;;7.90;4.10;;;17.80;77.10;;;;;;4974870;28;20034;-85
2023/07/12 07:08:19;;;;;;;8.20;3.70;;;17.90;76.90;;;;;;4948004;29;20034;-84
2023/07/12 07:10:50;;;;;;;12.80;4.80;;;18.00;76.50;;;;;;4964608;28;20031;-85
2023/07/12 07:13:16;;;;;;;8.65;4.15;;;18.20;76.20;;;;;;4959360;28;20031;-85
2023/07/12 07:15:45;;;;;;;8.05;4.35;;;18.30;75.90;;;;;;4958590;28;20035;-85
2023/07/12 07:18:11;;;;;;;8.55;4.35;;;18.50;75.60;;;;;;4974337;28;20030;-85
2023/07/12 07:20:39;;;;;;;13.90;5.20;;;18.70;75.10;;;;;;4940375;29;20059;-85
2023/07/12 07:23:05;;;;;;;10.57;4.88;;;18.80;74.50;;;;;;4940571;29;20031;-85
2023/07/12 07:25:30;;;;;;;10.15;3.75;;;18.90;74.60;;;;;;4957703;29;20773;-85
2023/07/12 07:27:56;;;;;;;7.25;3.75;;;18.90;74.30;;;;;;4957450;28;20506;-85
2023/07/12 07:30:22;;;;;;;8.95;3.78;;;18.90;74.20;;;;;;4967040;28;20034;-85
2023/07/12 07:32:48;;;;;;;8.75;3.63;;;18.80;73.10;;;;;;4966825;28;20439;-86
2023/07/12 07:35:14;;;;;;;7.90;3.25;;;19.20;73.10;;;;;;4939291;29;20046;-86
2023/07/12 07:37:42;;;;;;;7.28;3.00;;;19.70;71.80;;;;;;4971095;28;20026;-86
2023/07/12 07:40:08;;;;;;;7.18;3.08;;;21.80;65.70;;;;;;4977048;28;20054;-85
2023/07/12 07:42:34;;;;;;;7.40;3.00;;;24.40;58.10;;;;;;4964871;28;20043;-86
2023/07/12 07:45:00;;;;;;;5.65;2.47;;;26.50;53.10;;;;;;4959382;28;20023;-87
2023/07/12 07:47:26;;;;;;;6.57;2.83;;;27.80;48.30;;;;;;4957544;28;20035;-86
2023/07/12 07:49:52;;;;;;;6.20;2.38;;;29.40;44.50;;;;;;4963793;28;20114;-86
2023/07/12 07:52:18;;;;;;;6.57;2.92;;;29.90;43.50;;;;;;4957560;28;20106;-86
2023/07/12 07:54:44;;;;;;;5.00;2.50;;;30.60;40.80;;;;;;4945903;29;20054;-82
2023/07/12 07:57:09;;;;;;;6.72;2.55;;;31.90;39.00;;;;;;4976599;28;20420;-87
2023/07/12 07:59:35;;;;;;;5.68;2.60;;;32.90;36.20;;;;;;4976000;28;20058;-86
2023/07/12 08:02:01;;;;;;;7.20;2.70;;;33.70;35.50;;;;;;4978929;28;20053;-89
2023/07/12 08:04:34;;;;;;;4.70;2.55;;;34.10;34.50;;;;;;4955202;28;20050;-92
2023/07/12 08:06:59;;;;;;;5.78;2.53;;;34.80;33.40;;;;;;4954229;28;20027;-86
2023/07/12 08:09:25;;;;;;;5.47;2.95;;;34.40;33.10;;;;;;4969488;28;20435;-87
2023/07/12 08:11:51;;;;;;;6.90;2.60;;;34.20;33.80;;;;;;4952757;28;20038;-85
2023/07/12 08:14:18;;;;;;;6.50;2.90;;;34.90;32.40;;;;;;4972336;28;20117;-86
2023/07/12 08:16:43;;;;;;;4.93;2.60;;;35.50;32.10;;;;;;4953536;28;20069;-85
2023/07/12 08:19:09;;;;;;;5.90;2.78;;;35.70;31.50;;;;;;4952005;28;20019;-85
2023/07/12 08:21:34;;;;;;;7.43;2.80;;;36.40;31.10;;;;;;4953213;28;20043;-85
2023/07/12 08:24:00;;;;;;;4.80;2.42;;;36.30;30.50;;;;;;4969096;28;20093;-85
2023/07/12 08:26:26;;;;;;;4.63;2.60;;;36.80;30.80;;;;;;4969275;28;20543;-83
2023/07/12 08:28:51;;;;;;;5.05;2.53;;;36.90;30.20;;;;;;4969023;28;20498;-81
2023/07/12 08:31:17;;;;;;;6.55;2.70;;;37.30;28.90;;;;;;4947989;28;20123;-81
2023/07/12 08:33:44;;;;;;;5.68;2.72;;;37.40;29.30;;;;;;4963378;28;20043;-81
2023/07/12 08:36:10;;;;;;;4.18;2.83;;;37.30;29.10;;;;;;4972922;28;20077;-81
2023/07/12 08:38:36;;;;;;;6.05;2.70;;;37.10;29.00;;;;;;4970346;28;20031;-81
2023/07/12 08:41:10;;;;;;;6.07;2.53;;;37.30;29.60;;;;;;4971021;28;20041;-81
2023/07/12 08:43:35;;;;;;;5.47;2.70;;;37.30;29.00;;;;;;4959600;28;20035;-81
2023/07/12 08:46:38;;;;;;;6.50;3.13;;;37.10;29.00;;;;;;4957798;28;20041;-81
2023/07/12 08:49:07;;;;;;;5.60;2.70;;;37.00;28.30;;;;;;4882060;29;20033;-81
2023/07/12 08:51:36;;;;;;;5.15;2.65;;;36.60;28.70;;;;;;4961512;28;20039;-81
2023/07/12 08:54:03;;;;;;;7.28;2.80;;;36.40;29.80;;;;;;4963202;28;20489;-81
2023/07/12 08:56:28;;;;;;;5.05;2.60;;;36.50;28.70;;;;;;4955633;28;20036;-81
2023/07/12 08:58:55;;;;;;;4.22;2.10;;;36.20;30.00;;;;;;4968444;28;20382;-80
2023/07/12 09:01:45;;;;;;;4.57;2.30;;;35.10;30.70;;;;;;4970987;28;20521;-80
2023/07/12 09:04:33;;;;;;;4.45;2.22;;;35.30;30.10;;;;;;4972328;28;20021;-80
2023/07/12 09:07:07;;;;;;;7.75;2.40;;;35.30;31.10;;;;;;4953367;28;20115;-80
2023/07/12 09:09:38;;;;;;;5.80;2.10;;;34.90;30.70;;;;;;4949913;28;20018;-81
2023/07/12 09:12:07;;;;;;;4.60;2.25;;;35.00;31.30;;;;;;4952502;28;20034;-80
2023/07/12 09:14:35;;;;;;;3.55;1.92;;;34.50;30.30;;;;;;4968455;28;20031;-80
2023/07/12 09:17:01;;;;;;;4.15;1.75;;;33.70;31.90;;;;;;4951459;28;20088;-80
2023/07/12 09:19:32;;;;;;;5.35;1.60;;;32.90;32.70;;;;;;4970113;28;20015;-80
2023/07/12 09:22:09;;;;;;;4.53;1.67;;;32.30;34.30;;;;;;4949981;28;20034;-80
2023/07/12 09:24:43;;;;;;;5.25;1.60;;;31.70;34.40;;;;;;4966888;28;20027;-80
2023/07/12 09:27:18;;;;;;;5.00;1.45;;;31.30;35.90;;;;;;4967003;28;20090;-80
2023/07/12 09:29:44;;;;;;;5.97;1.75;;;31.80;34.10;;;;;;4968497;28;20375;-80
2023/07/12 09:32:23;;;;;;;6.25;4.22;;;32.40;34.00;;;;;;4958747;28;20075;-80
2023/07/12 09:34:50;;;;;;;3.60;1.65;;;33.00;32.00;;;;;;4969325;28;20027;-80
2023/07/12 09:37:22;;;;;;;5.53;3.47;;;32.40;33.70;;;;;;4973883;28;20031;-80
2023/07/12 09:39:59;;;;;;;3.63;1.85;;;33.00;32.80;;;;;;4973593;28;20397;-80
2023/07/12 09:42:26;;;;;;;8.38;1.50;;;33.50;32.20;;;;;;4960825;28;20031;-80
2023/07/12 09:44:52;;;;;;;3.70;1.65;;;33.00;31.60;;;;;;4950957;29;20031;-80
2023/07/12 09:47:39;;;;;;;4.75;1.38;;;31.80;33.10;;;;;;4974992;28;20065;-80
2023/07/12 09:50:26;;;;;;;5.00;1.45;;;31.30;34.40;;;;;;4974161;28;20035;-79
2023/07/12 09:53:03;;;;;;;4.43;1.60;;;31.30;33.70;;;;;;4960560;28;20041;-79
2023/07/12 09:55:35;;;;;;;3.65;1.80;;;30.90;34.60;;;;;;4958606;28;20396;-79
2023/07/12 09:58:03;;;;;;;3.03;1.55;;;32.30;33.90;;;;;;4952505;28;20027;-80
2023/07/12 10:00:41;;;;;;;3.15;1.10;;;33.10;31.60;;;;;;4974817;28;20043;-80
2023/07/12 10:03:36;;;;;;;3.95;1.50;;;32.50;32.60;;;;;;4954429;28;20083;-81
2023/07/12 10:06:28;;;;;;;5.30;1.40;;;32.60;32.60;;;;;;4947931;29;20098;-79
2023/07/12 10:09:13;;;;;;;2.90;1.48;;;32.10;32.60;;;;;;4973679;28;20018;-79
2023/07/12 10:11:46;;;;;;;4.53;1.80;;;32.30;32.70;;;;;;4948250;28;20034;-79
2023/07/12 10:14:15;;;;;;;4.38;1.67;;;33.10;31.70;;;;;;4954890;29;20505;-79
2023/07/12 10:16:46;;;;;;;4.80;2.10;;;33.20;31.10;;;;;;4948361;28;20098;-80
2023/07/12 10:19:20;;;;;;;4.43;1.70;;;32.90;32.70;;;;;;4960077;28;20030;-80
2023/07/12 10:21:49;;;;;;;4.05;1.60;;;33.00;31.40;;;;;;4953169;29;20043;-80
2023/07/12 10:24:16;;;;;;;4.22;1.30;;;33.60;33.00;;;;;;4952839;28;20030;-80
2023/07/12 10:26:43;;;;;;;5.20;1.67;;;33.30;30.20;;;;;;4959837;28;20383;-80
2023/07/12 10:29:19;;;;;;;5.70;1.40;;;32.30;31.60;;;;;;4959409;28;20034;-79
2023/07/12 10:31:52;;;;;;;7.15;1.42;;;31.00;33.40;;;;;;4965246;28;20055;-79
2023/07/12 10:34:41;;;;;;;4.03;1.35;;;30.50;34.60;;;;;;4965094;28;20070;-79
2023/07/12 10:37:31;;;;;;;4.75;1.33;;;30.90;33.10;;;;;;4975371;28;20027;-79
2023/07/12 10:39:58;;;;;;;4.63;1.20;;;31.40;33.20;;;;;;4972874;28;20034;-80
2023/07/12 10:42:40;;;;;;;2.95;1.20;;;31.60;31.50;;;;;;4950402;28;20058;-79
2023/07/12 10:45:12;;;;;;;2.95;1.13;;;31.50;33.30;;;;;;4967862;28;20027;-80
2023/07/12 10:47:41;;;;;;;3.15;1.10;;;31.00;32.70;;;;;;4969105;28;20564;-80
2023/07/12 10:50:21;;;;;;;5.22;1.50;;;30.60;33.90;;;;;;4964014;28;20078;-79
2023/07/12 10:53:14;;;;;;;4.18;1.58;;;30.00;34.70;;;;;;4968192;28;20034;-79
2023/07/12 10:56:07;;;;;;;4.78;1.30;;;29.30;35.30;;;;;;4951973;28;20110;-79
2023/07/12 10:58:49;;;;;;;4.65;1.50;;;29.00;36.40;;;;;;4967722;28;20042;-79
2023/07/12 11:01:40;;;;;;;4.03;1.42;;;29.00;37.60;;;;;;4949992;28;20031;-79
2023/07/12 11:04:29;;;;;;;4.70;1.25;;;28.80;37.80;;;;;;4950710;28;20444;-79
2023/07/12 11:07:13;;;;;;;3.90;1.58;;;28.30;37.40;;;;;;4956240;28;20031;-79
2023/07/12 11:09:47;;;;;;;5.05;1.40;;;28.30;37.50;;;;;;4949831;28;20023;-81
2023/07/12 11:12:31;;;;;;;3.45;1.25;;;28.20;38.70;;;;;;4967860;28;20793;-80
2023/07/12 11:15:12;;;;;;;4.10;1.30;;;28.10;37.90;;;;;;4950592;28;20046;-80
2023/07/12 11:17:46;;;;;;;4.60;1.50;;;27.70;37.60;;;;;;4946692;28;20054;-80
2023/07/12 11:20:24;;;;;;;3.75;1.20;;;27.40;38.30;;;;;;4959769;28;20027;-80
2023/07/12 11:22:55;;;;;;;4.53;1.42;;;27.40;39.40;;;;;;4959649;28;20026;-80
2023/07/12 11:25:29;;;;;;;4.60;1.42;;;27.70;39.40;;;;;;4959472;28;20139;-79
2023/07/12 11:28:23;;;;;;;4.32;1.10;;;27.60;37.70;;;;;;4960506;28;20039;-80
2023/07/12 11:31:14;;;;;;;5.18;1.33;;;27.50;36.90;;;;;;4957668;29;20125;-79
2023/07/12 11:33:44;;;;;;;3.35;1.20;;;27.40;37.70;;;;;;4974119;28;20035;-80
2023/07/12 11:36:19;;;;;;;5.00;1.30;;;27.30;39.00;;;;;;4955359;28;20027;-80
2023/07/12 11:38:45;;;;;;;3.90;1.00;;;27.20;37.70;;;;;;4954916;28;20027;-80
2023/07/12 11:41:21;;;;;;;2.28;1.00;;;27.20;36.80;;;;;;4953393;29;20035;-80
2023/07/12 11:43:47;;;;;;;3.88;1.05;;;27.30;38.00;;;;;;4965971;28;20035;-80
2023/07/12 11:46:18;;;;;;;3.28;1.20;;;27.30;37.30;;;;;;4959859;28;20806;-80
2023/07/12 11:48:55;;;;;;;3.40;1.13;;;27.20;38.30;;;;;;4955737;28;20107;-80
2023/07/12 11:51:29;;;;;;;3.10;1.08;;;27.10;37.50;;;;;;4975308;28;20127;-81
2023/07/12 11:53:57;;;;;;;2.95;0.95;;;27.20;37.50;;;;;;4938322;28;20027;-82
2023/07/12 11:56:23;;;;;;;1.85;0.90;;;27.30;37.50;;;;;;4951303;28;20375;-83
2023/07/12 11:58:48;;;;;;;4.07;1.00;;;27.40;36.50;;;;;;4957417;29;20081;-81
2023/07/12 12:01:16;;;;;;;4.80;1.05;;;27.50;34.70;;;;;;4940957;28;20037;-82
2023/07/12 12:03:42;;;;;;;4.40;1.30;;;27.40;35.70;;;;;;4977116;28;20019;-84
2023/07/12 12:06:12;;;;;;;3.70;1.25;;;27.50;36.60;;;;;;4957675;29;20031;-83
2023/07/12 12:08:41;;;;;;;3.45;1.20;;;27.50;37.30;;;;;;4949496;29;20288;-83
2023/07/12 12:11:10;;;;;;;3.53;1.40;;;27.30;37.30;;;;;;4967050;28;20393;-83
2023/07/12 12:13:42;;;;;;;3.13;0.90;;;27.50;37.30;;;;;;4955506;29;20028;-83
2023/07/12 12:16:19;;;;;;;3.63;0.93;;;27.40;36.00;;;;;;4940354;29;20126;-80
2023/07/12 12:18:59;;;;;;;3.83;1.10;;;27.30;37.50;;;;;;4955858;28;20042;-81
2023/07/12 12:21:26;;;;;;;3.60;1.00;;;27.20;35.60;;;;;;4957180;28;20039;-82
2023/07/12 12:23:57;;;;;;;3.28;1.27;;;27.30;35.70;;;;;;4939964;29;20102;-84
2023/07/12 12:26:27;;;;;;;3.78;1.10;;;27.50;36.40;;;;;;4940009;28;20049;-80
2023/07/12 12:28:58;;;;;;;4.13;0.98;;;27.40;35.90;;;;;;4959219;28;20073;-81
2023/07/12 12:31:26;;;;;;;2.30;1.00;;;27.60;36.80;;;;;;4968150;28;20085;-80
2023/07/12 12:34:14;;;;;;;2.78;1.00;;;27.60;36.00;;;;;;4953671;28;20509;-80
2023/07/12 12:37:21;;;;;;;4.85;1.13;;;27.60;35.50;;;;;;4968604;28;20073;-80
2023/07/12 12:40:00;;;;;;;3.60;1.27;;;27.50;36.40;;;;;;4951714;29;20505;-80
2023/07/12 12:42:27;;;;;;;5.22;1.25;;;27.60;35.90;;;;;;4939524;29;20486;-80
2023/07/12 12:44:55;;;;;;;2.13;1.08;;;27.50;35.40;;;;;;4963039;28;20030;-81
2023/07/12 12:47:23;;;;;;;3.03;1.05;;;27.50;35.20;;;;;;4954544;28;20054;-80
2023/07/12 12:49:49;;;;;;;3.67;0.90;;;27.80;36.30;;;;;;4964085;28;20555;-80
2023/07/12 12:52:24;;;;;;;2.28;1.00;;;27.60;35.30;;;;;;4978344;28;20039;-80
2023/07/12 12:54:51;;;;;;;3.20;1.00;;;27.50;36.10;;;;;;4977093;28;20041;-80
2023/07/12 12:57:16;;;;;;;2.08;0.88;;;27.40;36.10;;;;;;4961918;28;20045;-80
2023/07/12 12:59:42;;;;;;;4.50;1.10;;;27.30;35.30;;;;;;4967411;28;20027;-80
2023/07/12 13:02:16;;;;;;;3.05;1.00;;;27.10;35.60;;;;;;4967468;28;20549;-80
2023/07/12 13:04:42;;;;;;;2.90;1.00;;;26.80;36.40;;;;;;4961383;28;20031;-80
2023/07/12 13:07:27;;;;;;;5.95;1.10;;;26.70;36.40;;;;;;4963023;28;20039;-80
2023/07/12 13:09:53;;;;;;;2.83;1.20;;;27.00;36.50;;;;;;4979362;28;20404;-80
2023/07/12 13:12:23;;;;;;;3.80;1.10;;;27.20;36.00;;;;;;4959931;28;20032;-80
2023/07/12 13:14:49;;;;;;;2.72;1.10;;;27.00;36.20;;;;;;4959502;29;20039;-80
2023/07/12 13:17:17;;;;;;;5.32;1.13;;;26.90;36.70;;;;;;4960121;29;20042;-80
2023/07/12 13:19:43;;;;;;;3.35;1.10;;;26.70;36.10;;;;;;4942506;29;20066;-81
2023/07/12 13:22:15;;;;;;;2.58;0.88;;;26.50;36.30;;;;;;4960103;28;20035;-80
2023/07/12 13:24:41;;;;;;;3.60;1.10;;;26.80;37.70;;;;;;4959789;29;20023;-80
2023/07/12 13:27:16;;;;;;;3.92;1.20;;;26.80;37.10;;;;;;4959029;28;20038;-80
2023/07/12 13:29:45;;;;;;;3.22;0.98;;;26.90;37.20;;;;;;4960248;28;20031;-80
2023/07/12 13:32:12;;;;;;;3.00;1.20;;;26.90;35.50;;;;;;4966363;28;20414;-80
2023/07/12 13:34:38;;;;;;;3.53;1.00;;;27.00;35.80;;;;;;4978653;28;20043;-80
2023/07/12 13:37:04;;;;;;;2.15;0.90;;;27.20;35.60;;;;;;4972589;28;20701;-80
2023/07/12 13:39:31;;;;;;;3.55;1.10;;;27.10;35.30;;;;;;4959349;29;20027;-80
2023/07/12 13:41:57;;;;;;;3.70;1.13;;;27.00;35.10;;;;;;4955239;28;20037;-80
2023/07/12 13:44:25;;;;;;;3.60;1.00;;;26.90;36.30;;;;;;4978830;28;20037;-80
2023/07/12 13:46:51;;;;;;;2.67;1.00;;;27.10;35.20;;;;;;4963449;28;20172;-80
2023/07/12 13:49:18;;;;;;;2.95;1.05;;;27.20;35.10;;;;;;4958997;29;20371;-80
2023/07/12 13:51:45;;;;;;;3.78;1.30;;;27.00;34.30;;;;;;4942817;28;20027;-81
2023/07/12 13:54:11;;;;;;;2.50;1.00;;;27.10;36.40;;;;;;4941479;29;20059;-80
2023/07/12 13:56:38;;;;;;;2.63;0.88;;;27.30;34.70;;;;;;4942334;29;20027;-80
2023/07/12 13:59:04;;;;;;;2.28;0.95;;;27.30;35.70;;;;;;4941674;29;20039;-80
2023/07/12 14:01:31;;;;;;;4.20;1.05;;;27.00;33.80;;;;;;4962088;28;20022;-81
2023/07/12 14:03:59;;;;;;;3.88;1.00;;;26.70;35.20;;;;;;4964466;28;20030;-80
2023/07/12 14:06:25;;;;;;;2.67;1.00;;;26.60;35.80;;;;;;4958952;29;20012;-80
2023/07/12 14:08:51;;;;;;;3.53;1.10;;;26.50;35.50;;;;;;4957302;28;20019;-80
2023/07/12 14:11:27;;;;;;;2.38;1.00;;;26.70;35.90;;;;;;4947892;29;20097;-80
2023/07/12 14:13:53;;;;;;;3.95;1.00;;;26.80;36.00;;;;;;4958689;29;20110;-80
2023/07/12 14:16:21;;;;;;;3.63;0.90;;;27.00;35.70;;;;;;4942002;29;20033;-80
2023/07/12 14:18:47;;;;;;;6.03;1.20;;;27.30;35.80;;;;;;4958702;29;20047;-80
2023/07/12 14:21:14;;;;;;;3.38;1.20;;;27.30;35.40;;;;;;4959165;28;20058;-80
2023/07/12 14:23:41;;;;;;;3.03;0.90;;;27.30;35.70;;;;;;4958888;29;20027;-80
2023/07/12 14:26:17;;;;;;;2.42;1.10;;;27.40;35.50;;;;;;4960961;28;20497;-81
2023/07/12 14:28:43;;;;;;;3.88;1.38;;;27.40;35.20;;;;;;4958800;29;20478;-80
2023/07/12 14:31:14;;;;;;;5.40;1.30;;;27.20;35.80;;;;;;4960618;28;20039;-80
2023/07/12 14:33:40;;;;;;;3.03;1.38;;;27.30;35.10;;;;;;4969317;28;20476;-80
2023/07/12 14:36:06;;;;;;;4.05;1.10;;;27.20;35.50;;;;;;4940929;29;20066;-80
2023/07/12 14:38:32;;;;;;;4.43;1.20;;;27.20;35.70;;;;;;4941456;29;20070;-81
2023/07/12 14:40:58;;;;;;;3.90;1.10;;;27.00;36.00;;;;;;4958924;28;20031;-80
2023/07/12 14:43:23;;;;;;;4.38;0.95;;;26.90;35.10;;;;;;4958443;29;20115;-80
2023/07/12 14:45:49;;;;;;;3.22;1.13;;;26.90;35.90;;;;;;4959283;28;20062;-80
2023/07/12 14:48:15;;;;;;;2.20;1.10;;;27.20;36.20;;;;;;4958098;29;20394;-80
2023/07/12 14:50:41;;;;;;;2.55;1.00;;;27.60;35.90;;;;;;4958269;28;20027;-81
2023/07/12 14:53:15;;;;;;;3.97;1.00;;;27.70;35.50;;;;;;4977503;28;20027;-80
2023/07/12 14:55:40;;;;;;;3.88;1.08;;;27.70;35.50;;;;;;4959730;28;20030;-80
2023/07/12 14:58:14;;;;;;;4.68;1.33;;;27.70;35.40;;;;;;4965565;28;20115;-80
2023/07/12 15:00:40;;;;;;;2.92;1.00;;;27.50;34.90;;;;;;4959103;28;20032;-80
2023/07/12 15:03:20;;;;;;;5.80;1.30;;;27.50;35.90;;;;;;4974120;28;20026;-80
2023/07/12 15:05:47;;;;;;;2.75;1.00;;;27.70;35.80;;;;;;4963256;28;20035;-80
2023/07/12 15:08:32;;;;;;;4.30;1.13;;;27.60;35.50;;;;;;4948055;29;20026;-80
2023/07/12 15:10:59;;;;;;;4.22;1.02;;;27.40;34.70;;;;;;4965927;28;20026;-80
2023/07/12 15:13:25;;;;;;;3.10;1.65;;;27.30;35.70;;;;;;4977259;28;20029;-80
2023/07/12 15:15:51;;;;;;;4.68;1.20;;;27.30;35.40;;;;;;4958104;28;20133;-80
2023/07/12 15:18:20;;;;;;;3.60;1.30;;;27.40;36.70;;;;;;4941148;28;20118;-80
2023/07/12 15:20:49;;;;;;;2.67;1.00;;;27.40;36.30;;;;;;4957872;29;20037;-80
2023/07/12 15:23:34;;;;;;;4.13;0.93;;;27.30;35.90;;;;;;4957556;29;20023;-80
2023/07/12 15:26:01;;;;;;;3.28;1.00;;;27.30;36.80;;;;;;4958292;28;20031;-80
2023/07/12 15:28:27;;;;;;;2.97;1.10;;;27.20;36.20;;;;;;4957731;28;20035;-80
2023/07/12 15:30:52;;;;;;;3.00;1.10;;;27.20;35.80;;;;;;4957991;29;20106;-80
2023/07/12 15:33:26;;;;;;;3.63;1.08;;;27.10;37.10;;;;;;4976871;28;20023;-80
2023/07/12 15:35:56;;;;;;;2.72;1.20;;;27.20;36.50;;;;;;4959803;28;20041;-80
2023/07/12 15:38:25;;;;;;;3.53;1.08;;;27.20;36.00;;;;;;4950666;29;20024;-80
2023/07/12 15:40:56;;;;;;;3.20;1.13;;;27.20;36.40;;;;;;4958371;28;20027;-80
2023/07/12 15:43:27;;;;;;;7.63;1.50;;;27.30;36.50;;;;;;4958679;28;20026;-80
2023/07/12 15:45:54;;;;;;;5.70;1.38;;;27.20;36.90;;;;;;4971306;28;20031;-80
2023/07/12 15:48:23;;;;;;;3.35;1.00;;;27.20;37.20;;;;;;4957566;28;20023;-80
2023/07/12 15:50:51;;;;;;;5.18;1.20;;;27.20;37.60;;;;;;4940680;29;20038;-80
2023/07/12 15:53:18;;;;;;;4.53;1.20;;;27.10;37.20;;;;;;4956834;28;20074;-80
2023/07/12 15:55:47;;;;;;;2.80;0.90;;;27.00;38.30;;;;;;4940056;29;20043;-80
2023/07/12 15:58:22;;;;;;;3.92;1.40;;;27.10;38.40;;;;;;4968448;28;20031;-82
2023/07/12 16:00:50;;;;;;;4.60;1.40;;;27.10;38.70;;;;;;4972065;28;20030;-80
2023/07/12 16:03:20;;;;;;;3.53;1.10;;;26.90;39.90;;;;;;4971380;28;20019;-80
2023/07/12 16:05:47;;;;;;;5.82;1.40;;;26.80;40.80;;;;;;4951797;28;20081;-80
2023/07/12 16:08:14;;;;;;;5.20;1.27;;;26.60;41.40;;;;;;4967096;28;20090;-78
2023/07/12 16:10:40;;;;;;;4.10;1.48;;;26.40;41.30;;;;;;4965124;28;20489;-81
2023/07/12 16:13:13;;;;;;;4.15;1.38;;;26.50;41.50;;;;;;4967693;28;20114;-81
2023/07/12 16:15:38;;;;;;;;;;;26.60;42.00;;;;;;4949300;28;20030;-81
2023/07/12 16:18:14;;;;;;;3.58;1.30;;;26.70;41.50;;;;;;4949900;28;19910;-80
2023/07/12 16:20:40;;;;;;;5.68;1.67;;;26.50;42.00;;;;;;4971459;28;20058;-84
2023/07/12 16:23:35;;;;;;;4.68;1.40;;;26.50;41.40;;;;;;4976150;28;20474;-81
2023/07/12 16:26:12;;;;;;;4.63;1.88;;;26.40;41.70;;;;;;4943384;29;20031;-81
2023/07/12 16:28:38;;;;;;;4.05;1.33;;;26.30;41.90;;;;;;4975322;28;20058;-83
2023/07/12 16:31:22;;;;;;;3.90;1.48;;;26.30;41.80;;;;;;4977120;28;20059;-81
2023/07/12 16:33:48;;;;;;;6.00;1.48;;;26.00;42.70;;;;;;4948830;28;20055;-82
2023/07/12 16:36:15;;;;;;;6.63;1.40;;;25.90;43.80;;;;;;4967722;28;20055;-81
2023/07/12 16:38:41;;;;;;;5.15;2.20;;;25.90;43.50;;;;;;4966670;28;20038;-82
2023/07/12 16:41:22;;;;;;;5.82;1.75;;;25.80;44.50;;;;;;4959165;28;20114;-82
2023/07/12 16:43:48;;;;;;;4.03;1.52;;;25.70;44.60;;;;;;4959574;28;20486;-82
2023/07/12 16:46:13;;;;;;;4.60;1.50;;;25.70;44.50;;;;;;4973876;28;20046;-82
2023/07/12 16:48:41;;;;;;;7.18;1.42;;;25.70;45.30;;;;;;4939815;29;20035;-81
2023/07/12 16:51:32;;;;;;;5.25;1.73;;;25.70;45.40;;;;;;4963266;28;20078;-81
2023/07/12 16:53:58;;;;;;;7.18;1.90;;;25.60;45.90;;;;;;4963145;28;20022;-84
2023/07/12 16:56:26;;;;;;;6.50;1.67;;;25.40;46.00;;;;;;4960267;28;20516;-85
2023/07/12 16:58:54;;;;;;;6.50;1.65;;;25.40;46.80;;;;;;4953658;28;20060;-81
2023/07/12 17:01:27;;;;;;;8.18;1.50;;;25.30;46.90;;;;;;4944994;28;20031;-80
2023/07/12 17:03:54;;;;;;;7.00;1.73;;;25.10;48.10;;;;;;4956360;28;20393;-80
2023/07/12 17:06:22;;;;;;;6.65;1.60;;;25.10;48.10;;;;;;4959813;28;20490;-81
2023/07/12 17:08:48;;;;;;;5.97;1.70;;;25.00;48.30;;;;;;4974773;28;20485;-81
2023/07/12 17:11:17;;;;;;;5.30;1.75;;;24.90;48.70;;;;;;4977887;28;20512;-81
2023/07/12 17:13:44;;;;;;;7.47;2.17;;;24.90;49.00;;;;;;4964459;28;20031;-82
2023/07/12 17:16:13;;;;;;;4.05;1.50;;;24.80;49.10;;;;;;4954653;28;20042;-80
2023/07/12 17:18:39;;;;;;;5.30;1.70;;;24.90;49.00;;;;;;4972639;28;20034;-80
2023/07/12 17:21:09;;;;;;;5.60;1.60;;;25.10;49.20;;;;;;4960668;28;20129;-80
2023/07/12 17:23:40;;;;;;;5.95;1.50;;;25.20;48.80;;;;;;4948646;28;20027;-78
2023/07/12 17:26:10;;;;;;;3.92;1.30;;;25.30;47.90;;;;;;4967563;28;20103;-78
2023/07/12 17:28:36;;;;;;;5.70;1.50;;;25.30;47.70;;;;;;4959521;28;20023;-77
2023/07/12 17:31:29;;;;;;;7.13;1.88;;;25.30;47.60;;;;;;4969013;28;20617;-81